Time;durP1;ratioP1;P1;durP2;ratioP2;P2;SDS_P1;SDS_P2;PMS_P1;PMS_P2;Temp;Humidity;BMP_temperature;BMP_pressure;BME280_temperature;BME280_humidity;BME280_pressure;Samples;Min_cycle;Max_cycle;Signal;HPM_P1;HPM_P2
2022/04/21 00:00:57;;;;;;;0.40;0.40;;;;;;;9.07;40.46;99023.75;4768153;30;20681;-85
2022/04/21 00:03:24;;;;;;;0.40;0.40;;;;;;;9.05;40.35;99021.28;4754288;30;20113;-86
2022/04/21 00:05:51;;;;;;;0.40;0.40;;;;;;;9.03;40.52;99022.56;4752614;30;20470;-86
2022/04/21 00:08:20;;;;;;;0.40;0.40;;;;;;;9.02;40.60;99024.44;4753546;30;20079;-84
2022/04/21 00:10:47;;;;;;;0.40;0.40;;;;;;;9.03;40.60;99018.00;4753787;30;20402;-86
2022/04/21 00:13:14;;;;;;;0.40;0.40;;;;;;;9.01;40.67;99022.78;4754873;30;20094;-85
2022/04/21 00:15:42;;;;;;;0.40;0.40;;;;;;;9.01;40.71;99017.41;4756113;30;20063;-86
2022/04/21 00:18:09;;;;;;;0.40;0.40;;;;;;;8.99;40.80;99027.63;4754385;30;20056;-85
2022/04/21 00:20:36;;;;;;;0.40;0.40;;;;;;;8.96;40.82;99019.16;4755876;30;20051;-86
2022/04/21 00:25:49;;;;;;;0.50;0.50;;;;;;;8.87;41.26;99016.03;4754131;30;20060;-86
2022/04/21 00:28:16;;;;;;;0.43;0.43;;;;;;;8.84;41.53;99020.00;4753189;30;20052;-86
2022/04/21 00:30:43;;;;;;;0.40;0.40;;;;;;;8.81;41.61;99016.94;4753189;30;20063;-86
2022/04/21 00:33:10;;;;;;;0.40;0.40;;;;;;;8.79;41.60;99027.13;4753488;30;20096;-85
2022/04/21 00:35:37;;;;;;;0.40;0.40;;;;;;;8.74;41.67;99017.06;4767046;30;20056;-86
2022/04/21 00:38:05;;;;;;;0.40;0.40;;;;;;;8.71;41.94;99016.69;4770605;30;20539;-86
2022/04/21 00:40:32;;;;;;;0.50;0.50;;;;;;;8.66;42.07;99023.59;4771794;30;20401;-86
2022/04/21 00:43:01;;;;;;;0.40;0.40;;;;;;;8.61;42.37;99019.97;4770825;30;20474;-86
2022/04/21 00:45:29;;;;;;;0.40;0.40;;;;;;;8.58;42.29;99032.00;4771885;30;20480;-85
2022/04/21 00:47:58;;;;;;;0.40;0.40;;;;;;;8.56;42.46;99014.44;4771789;30;20056;-87
2022/04/21 00:50:36;;;;;;;0.47;0.47;;;;;;;8.53;42.52;99007.66;4771570;30;20059;-86
2022/04/21 00:53:04;;;;;;;0.50;0.50;;;;;;;8.49;42.38;99025.31;4771169;30;20427;-87
2022/04/21 00:55:32;;;;;;;0.45;0.45;;;;;;;8.48;42.53;99020.16;4771233;30;20075;-87
2022/04/21 00:58:01;;;;;;;0.40;0.40;;;;;;;8.46;42.58;99025.78;4772145;30;20078;-86
2022/04/21 01:00:28;;;;;;;0.50;0.50;;;;;;;8.44;42.77;99017.13;4771448;30;20075;-86
2022/04/21 01:02:57;;;;;;;0.50;0.50;;;;;;;8.40;42.70;99024.00;4770590;30;20051;-86
2022/04/21 01:05:30;;;;;;;0.40;0.40;;;;;;;8.37;42.70;99014.50;4770995;30;20095;-85
2022/04/21 01:08:03;;;;;;;0.50;0.50;;;;;;;8.36;42.81;99020.94;4771425;30;20063;-87
2022/04/21 01:10:36;;;;;;;0.40;0.40;;;;;;;8.31;43.34;99014.59;4770716;30;20596;-87
2022/04/21 01:13:08;;;;;;;0.40;0.40;;;;;;;8.28;43.29;99020.41;4784105;30;20455;-85
2022/04/21 01:15:37;;;;;;;0.50;0.50;;;;;;;8.26;43.22;99012.59;4769865;30;20056;-86
2022/04/21 01:18:05;;;;;;;0.40;0.40;;;;;;;8.22;43.55;99014.09;4770663;30;20548;-86
2022/04/21 01:20:33;;;;;;;0.40;0.40;;;;;;;8.21;43.56;99018.66;4770477;30;20614;-86
2022/04/21 01:23:00;;;;;;;0.40;0.40;;;;;;;8.21;43.71;99021.34;4770543;30;20067;-86
2022/04/21 01:25:36;;;;;;;0.40;0.40;;;;;;;8.21;43.82;99018.66;4771037;30;20089;-85
2022/04/21 01:28:04;;;;;;;0.47;0.47;;;;;;;8.18;43.86;99019.13;4772498;30;20103;-87
2022/04/21 01:30:31;;;;;;;0.50;0.50;;;;;;;8.19;43.92;99022.63;4790093;30;20036;-85
2022/04/21 01:32:58;;;;;;;0.40;0.40;;;;;;;8.17;43.90;99016.66;4778297;30;20106;-85
2022/04/21 01:35:25;;;;;;;0.40;0.40;;;;;;;8.14;44.26;99023.31;4783937;30;20056;-85
2022/04/21 01:43:23;;;;;;;0.40;0.40;;;;;;;8.09;44.50;99017.78;4770221;30;20117;-85
2022/04/21 01:45:50;;;;;;;0.40;0.40;;;;;;;8.07;44.68;99011.81;4770324;30;20063;-86
2022/04/21 01:48:17;;;;;;;0.40;0.40;;;;;;;8.05;44.67;99019.28;4769913;30;20077;-88
2022/04/21 01:50:44;;;;;;;0.40;0.40;;;;;;;8.01;45.06;99012.75;4783492;29;20546;-90
2022/04/21 01:53:12;;;;;;;0.40;0.40;;;;;;;8.00;44.92;99024.53;4774809;30;20132;-90
2022/04/21 01:55:38;;;;;;;0.50;0.50;;;;;;;7.96;45.38;99015.28;4771859;30;20147;-87
2022/04/21 01:58:06;;;;;;;0.40;0.40;;;;;;;7.96;45.21;99020.66;4770318;30;20062;-83
2022/04/21 02:00:33;;;;;;;0.50;0.50;;;;;;;7.94;45.50;99017.38;4769980;30;20109;-86
2022/04/21 02:03:03;;;;;;;0.50;0.50;;;;;;;7.91;45.79;98999.03;4766012;30;20071;-83
2022/04/21 02:05:30;;;;;;;0.40;0.40;;;;;;;7.89;45.77;99011.88;4782562;30;20393;-86
2022/04/21 02:07:57;;;;;;;0.50;0.50;;;;;;;7.84;45.95;98995.59;4769268;30;20056;-87
2022/04/21 02:10:24;;;;;;;0.40;0.40;;;;;;;7.83;45.90;99005.53;4768544;30;20079;-86
2022/04/21 02:12:52;;;;;;;0.50;0.50;;;;;;;7.80;46.14;98995.25;4782556;30;20060;-86
2022/04/21 02:15:19;;;;;;;0.50;0.50;;;;;;;7.80;46.41;99011.38;4768431;30;20557;-85
2022/04/21 02:17:47;;;;;;;0.50;0.50;;;;;;;7.75;46.49;99003.97;4782459;30;20055;-85
2022/04/21 02:20:15;;;;;;;0.43;0.43;;;;;;;7.72;46.60;99003.59;4767041;30;20058;-86
2022/04/21 02:22:44;;;;;;;0.52;0.52;;;;;;;7.73;46.73;99007.94;4766393;30;20154;-84
2022/04/21 02:25:13;;;;;;;0.47;0.47;;;;;;;7.68;46.98;99011.28;4782052;30;20056;-84
2022/04/21 02:27:42;;;;;;;0.50;0.50;;;;;;;7.66;47.02;99009.88;4769076;30;20060;-84
2022/04/21 02:30:12;;;;;;;0.50;0.50;;;;;;;7.61;47.37;99015.94;4781398;30;20425;-84
2022/04/21 02:32:40;;;;;;;0.50;0.50;;;;;;;7.56;47.56;99005.84;4767037;30;20055;-82
2022/04/21 02:35:09;;;;;;;0.50;0.50;;;;;;;7.54;47.91;99001.75;4767423;30;20063;-83
2022/04/21 02:37:39;;;;;;;0.50;0.50;;;;;;;7.48;47.84;99008.84;4781736;30;20138;-82
2022/04/21 02:40:09;;;;;;;0.50;0.50;;;;;;;7.49;48.37;99004.28;4781532;30;20048;-85
2022/04/21 02:42:40;;;;;;;0.50;0.50;;;;;;;7.45;48.48;99003.94;4767278;30;20113;-84
2022/04/21 02:45:08;;;;;;;0.50;0.50;;;;;;;7.44;48.66;98999.59;4768369;30;20059;-86
2022/04/21 02:47:36;;;;;;;0.50;0.50;;;;;;;7.40;48.90;99013.72;4768583;30;20048;-84
2022/04/21 02:50:05;;;;;;;0.45;0.45;;;;;;;7.38;48.94;99008.53;4768118;30;20342;-83
2022/04/21 02:52:42;;;;;;;0.50;0.50;;;;;;;7.40;49.27;99008.34;4768228;30;20117;-83
2022/04/21 02:57:56;;;;;;;0.50;0.50;;;;;;;7.25;50.31;99011.38;4769343;30;20051;-83
2022/04/21 03:00:24;;;;;;;0.50;0.50;;;;;;;7.22;50.11;99015.34;4781194;30;20063;-83
2022/04/21 03:02:51;;;;;;;0.50;0.50;;;;;;;7.22;49.72;99012.66;4767125;30;20064;-83
2022/04/21 03:05:19;;;;;;;0.50;0.50;;;;;;;7.22;49.90;99009.97;4781507;30;20112;-82
2022/04/21 03:07:46;;;;;;;0.50;0.50;;;;;;;7.21;49.84;99011.00;4767809;30;20055;-84
2022/04/21 03:10:13;;;;;;;0.50;0.50;;;;;;;7.24;49.78;99015.09;4768023;30;20051;-85
2022/04/21 03:12:40;;;;;;;0.60;0.60;;;;;;;7.25;49.85;99008.69;4769199;30;20527;-89
2022/04/21 03:15:11;;;;;;;0.50;0.50;;;;;;;7.26;49.89;99026.44;4788020;29;20416;-91
2022/04/21 03:17:41;;;;;;;0.43;0.43;;;;;;;7.28;49.87;99018.97;4783852;30;20176;-86
2022/04/21 03:24:18;;;;;;;0.50;0.50;;;;;;;7.26;50.00;99019.19;4783886;29;20059;-84
2022/04/21 03:25:42;;;;;;;0.50;0.50;;;;;;;7.21;50.22;99035.16;4774726;30;20055;-88
2022/04/21 03:28:09;;;;;;;0.50;0.50;;;;;;;7.21;50.28;99032.47;4778930;30;20105;-87
2022/04/21 03:30:37;;;;;;;0.50;0.50;;;;;;;7.20;50.26;99030.03;4774251;30;20059;-89
2022/04/21 03:33:05;;;;;;;0.50;0.50;;;;;;;7.14;50.98;99034.38;4773983;30;20109;-92
2022/04/21 03:35:33;;;;;;;0.50;0.50;;;;;;;7.12;51.24;99042.69;4774540;30;20105;-91
2022/04/21 03:38:00;;;;;;;0.50;0.50;;;;;;;7.11;51.13;99048.25;4774526;30;20062;-91
2022/04/21 03:40:28;;;;;;;0.50;0.50;;;;;;;7.12;51.62;99047.22;4775132;30;20059;-91
2022/04/21 03:42:55;;;;;;;0.50;0.50;;;;;;;7.03;52.77;99051.22;4776048;30;20068;-90
2022/04/21 03:45:22;;;;;;;0.50;0.50;;;;;;;6.88;53.92;99047.00;4775172;30;20087;-90
2022/04/21 03:47:49;;;;;;;0.40;0.40;;;;;;;6.77;54.43;99050.41;4756644;30;20056;-89
2022/04/21 03:50:16;;;;;;;0.50;0.50;;;;;;;6.68;55.23;99059.75;4772782;30;20051;-91
2022/04/21 03:52:43;;;;;;;0.50;0.50;;;;;;;6.53;56.62;99037.78;4777363;30;20064;-90
2022/04/21 03:55:11;;;;;;;0.50;0.50;;;;;;;6.35;57.81;99042.03;4800223;29;20078;-89
2022/04/21 03:57:38;;;;;;;0.50;0.50;;;;;;;6.23;58.13;99038.44;4789689;30;20052;-89
2022/04/21 04:00:06;;;;;;;0.50;0.50;;;;;;;6.20;57.81;99020.06;4779548;30;20056;-90
2022/04/21 04:02:37;;;;;;;0.50;0.50;;;;;;;6.28;56.97;99017.16;4779330;30;20055;-90
2022/04/21 04:05:04;;;;;;;0.50;0.50;;;;;;;6.42;56.72;99029.41;4792288;30;20123;-91
2022/04/21 04:13:28;;;;;;;0.50;0.50;;;;;;;6.68;55.61;99020.38;4788272;30;20113;-92
2022/04/21 04:15:56;;;;;;;0.50;0.50;;;;;;;6.72;55.15;99015.38;4774249;30;20139;-90
2022/04/21 04:18:23;;;;;;;0.50;0.50;;;;;;;6.81;55.05;99018.59;4786433;29;20062;-92
2022/04/21 04:20:50;;;;;;;0.50;0.50;;;;;;;6.85;54.73;99011.75;4773320;30;20892;-91
2022/04/21 04:23:19;;;;;;;0.50;0.50;;;;;;;6.86;54.64;99021.44;4771696;30;20062;-92
2022/04/21 04:25:46;;;;;;;0.40;0.40;;;;;;;6.89;54.83;99019.16;4773659;30;20078;-87
2022/04/21 04:28:14;;;;;;;0.47;0.47;;;;;;;6.92;54.61;99015.22;4777932;30;20052;-88
2022/04/21 04:30:42;;;;;;;0.50;0.50;;;;;;;6.89;55.07;99021.03;4791450;30;20076;-93
2022/04/21 04:33:09;;;;;;;0.50;0.50;;;;;;;6.79;55.49;99016.16;4778071;30;20051;-91
2022/04/21 04:35:36;;;;;;;0.50;0.50;;;;;;;6.70;55.79;99015.59;4778093;30;20105;-94
2022/04/21 04:38:04;;;;;;;0.50;0.50;;;;;;;6.71;55.77;99019.94;4773840;30;20551;-91
2022/04/21 04:40:31;;;;;;;0.45;0.45;;;;;;;6.72;56.11;99018.88;4773548;30;20060;-86
2022/04/21 04:42:58;;;;;;;0.50;0.50;;;;;;;6.71;56.32;99030.66;4768105;30;20133;-86
2022/04/21 04:48:10;;;;;;;0.50;0.50;;;;;;;6.42;58.55;99018.69;4771610;30;20137;-88
2022/04/21 04:50:37;;;;;;;0.47;0.47;;;;;;;6.36;59.36;99042.88;4769254;30;20166;-85
2022/04/21 04:53:09;;;;;;;0.50;0.50;;;;;;;6.33;59.42;99032.56;4767409;30;20048;-87
2022/04/21 04:55:36;;;;;;;0.50;0.50;;;;;;;6.38;59.58;99033.59;4768048;30;20154;-87
2022/04/21 04:58:03;;;;;;;0.50;0.50;;;;;;;6.44;59.00;99039.94;4781055;30;20098;-87
2022/04/21 05:00:30;;;;;;;0.50;0.50;;;;;;;6.45;59.53;99052.28;4768334;30;20627;-86
2022/04/21 05:02:57;;;;;;;0.50;0.50;;;;;;;6.40;59.78;99047.56;4770801;30;20143;-84
2022/04/21 05:05:24;;;;;;;0.50;0.50;;;;;;;6.36;59.88;99049.06;4771765;30;20067;-83
2022/04/21 05:07:51;;;;;;;0.50;0.50;;;;;;;6.38;59.53;99057.72;4770732;30;20163;-87
2022/04/21 05:10:19;;;;;;;0.50;0.50;;;;;;;6.48;59.02;99041.13;4769495;30;20060;-85
2022/04/21 05:12:46;;;;;;;0.47;0.47;;;;;;;6.59;58.48;99053.84;4771084;30;20052;-86
2022/04/21 05:15:14;;;;;;;0.50;0.50;;;;;;;6.66;58.06;99056.47;4771167;30;20067;-87
2022/04/21 05:17:41;;;;;;;0.50;0.50;;;;;;;6.61;58.06;99062.50;4770916;30;20059;-86
2022/04/21 05:20:24;;;;;;;0.50;0.50;;;;;;;6.55;58.42;99058.00;4769211;30;20142;-87
2022/04/21 05:23:00;;;;;;;0.50;0.50;;;;;;;6.50;58.56;99071.22;4770470;30;20152;-85
2022/04/21 05:25:31;;;;;;;0.50;0.50;;;;;;;6.45;58.95;99063.00;4768568;30;20117;-87
2022/04/21 05:27:59;;;;;;;0.50;0.50;;;;;;;6.43;58.95;99076.66;4764905;30;20113;-84
2022/04/21 05:30:55;;;;;;;0.45;0.45;;;;;;;6.39;59.28;99075.44;4763879;30;20225;-88
2022/04/21 05:33:24;;;;;;;0.60;0.60;;;;;;;6.43;59.21;99081.16;4776915;30;20770;-83
2022/04/21 05:35:52;;;;;;;0.50;0.50;;;;;;;6.47;59.18;99077.84;4780124;30;20084;-84
2022/04/21 05:38:21;;;;;;;0.50;0.50;;;;;;;6.40;59.70;99082.41;4764829;30;20151;-85
2022/04/21 05:40:49;;;;;;;0.50;0.50;;;;;;;6.24;60.92;99101.69;4779110;30;20063;-83
2022/04/21 05:43:21;;;;;;;0.50;0.50;;;;;;;6.08;62.10;99095.78;4765427;30;20151;-85
2022/04/21 05:45:49;;;;;;;0.50;0.50;;;;;;;6.02;62.79;99104.66;4765813;30;20497;-85
2022/04/21 05:48:17;;;;;;;0.57;0.57;;;;;;;5.97;63.53;99109.84;4764026;30;20146;-85
2022/04/21 05:50:47;;;;;;;0.60;0.60;;;;;;;5.99;63.90;99113.13;4766010;30;20484;-83
2022/04/21 05:53:24;;;;;;;0.40;0.40;;;;;;;6.01;64.60;99112.94;4766216;30;20147;-88
2022/04/21 05:55:53;;;;;;;0.55;0.55;;;;;;;5.93;65.17;99116.66;4769687;30;20143;-84
2022/04/21 05:58:22;;;;;;;0.60;0.60;;;;;;;5.87;66.13;99122.81;4769673;30;20089;-86
2022/04/21 06:00:50;;;;;;;0.50;0.50;;;;;;;5.84;66.79;99128.63;4769415;30;20113;-84
2022/04/21 06:03:23;;;;;;;0.55;0.55;;;;;;;5.78;67.88;99126.78;4782104;30;20150;-87
2022/04/21 06:05:50;;;;;;;0.50;0.50;;;;;;;5.77;68.42;99130.47;4769573;30;20071;-83
2022/04/21 06:08:17;;;;;;;0.57;0.57;;;;;;;5.79;68.36;99128.41;4762503;30;20052;-85
2022/04/21 06:10:45;;;;;;;0.60;0.60;;;;;;;5.84;68.55;99142.81;4770301;30;20070;-85
2022/04/21 06:13:15;;;;;;;0.60;0.60;;;;;;;5.87;68.36;99141.56;4769301;30;20056;-87
2022/04/21 06:15:43;;;;;;;0.60;0.60;;;;;;;5.84;68.77;99142.81;4764029;30;20060;-86
2022/04/21 06:18:11;;;;;;;0.60;0.60;;;;;;;5.86;69.19;99143.44;4774300;30;20052;-88
2022/04/21 06:20:38;;;;;;;0.60;0.60;;;;;;;5.88;69.16;99150.47;4768099;30;20079;-87
2022/04/21 06:23:05;;;;;;;0.50;0.50;;;;;;;5.89;69.10;99150.22;4776532;30;20060;-87
2022/04/21 06:25:39;;;;;;;0.60;0.60;;;;;;;5.92;68.88;99154.34;4769496;30;20436;-86
2022/04/21 06:28:06;;;;;;;0.52;0.52;;;;;;;5.92;68.68;99162.38;4768537;30;20052;-86
2022/04/21 06:30:33;;;;;;;0.57;0.57;;;;;;;5.88;68.91;99148.59;4780058;30;20666;-86
2022/04/21 06:33:04;;;;;;;0.50;0.50;;;;;;;5.87;68.87;99168.38;4766449;30;20067;-85
2022/04/21 06:35:31;;;;;;;0.52;0.52;;;;;;;5.88;69.32;99162.00;4783029;30;20109;-86
2022/04/21 06:37:58;;;;;;;0.57;0.57;;;;;;;5.86;69.15;99175.59;4770725;30;20055;-86
2022/04/21 06:40:25;;;;;;;0.60;0.60;;;;;;;5.89;69.26;99166.31;4771856;30;20063;-86
2022/04/21 06:42:52;;;;;;;0.50;0.50;;;;;;;5.90;69.05;99173.31;4778962;30;20083;-86
2022/04/21 06:48:06;;;;;;;0.50;0.50;;;;;;;5.98;68.51;99170.44;4767248;30;20549;-86
2022/04/21 06:50:35;;;;;;;0.50;0.50;;;;;;;5.97;67.74;99170.63;4767646;30;20052;-87
2022/04/21 06:53:04;;;;;;;0.50;0.50;;;;;;;6.00;67.48;99184.47;4765601;30;20067;-84
2022/04/21 06:55:31;;;;;;;0.50;0.50;;;;;;;6.06;67.11;99180.09;4767189;30;20060;-82
2022/04/21 06:57:59;;;;;;;0.50;0.50;;;;;;;6.15;66.94;99175.31;4767751;30;20216;-84
2022/04/21 07:00:27;;;;;;;0.50;0.50;;;;;;;6.22;66.69;99181.50;4767590;30;20056;-84
2022/04/21 07:02:57;;;;;;;0.57;0.57;;;;;;;6.26;66.32;99190.75;4768108;30;20048;-85
2022/04/21 07:05:25;;;;;;;0.57;0.57;;;;;;;6.30;66.28;99189.28;4771028;30;20062;-84
2022/04/21 07:07:53;;;;;;;0.50;0.50;;;;;;;6.28;65.97;99188.69;4769502;30;20060;-86
2022/04/21 07:10:21;;;;;;;0.50;0.50;;;;;;;6.28;66.45;99199.41;4767338;30;20134;-87
2022/04/21 07:12:54;;;;;;;0.50;0.50;;;;;;;6.23;66.80;99200.03;4767463;30;20063;-85
2022/04/21 07:15:21;;;;;;;0.50;0.50;;;;;;;6.23;66.99;99202.72;4766357;30;20134;-85
2022/04/21 07:17:49;;;;;;;0.50;0.50;;;;;;;6.18;67.44;99197.19;4769000;30;20479;-87
2022/04/21 07:20:16;;;;;;;0.60;0.60;;;;;;;6.17;67.43;99198.19;4755266;30;20090;-88
2022/04/21 07:22:44;;;;;;;0.50;0.50;;;;;;;6.10;67.39;99200.06;4766443;30;20067;-84
2022/04/21 07:25:11;;;;;;;0.50;0.50;;;;;;;6.10;67.83;99197.38;4778791;30;20150;-84
2022/04/21 07:27:38;;;;;;;0.50;0.50;;;;;;;6.06;68.40;99205.03;4769013;30;20059;-84
2022/04/21 07:30:06;;;;;;;0.50;0.50;;;;;;;6.04;68.48;99212.47;4780715;30;20125;-84
2022/04/21 07:32:33;;;;;;;0.50;0.50;;;;;;;5.97;68.69;99203.59;4767570;30;20151;-83
2022/04/21 07:35:01;;;;;;;0.60;0.60;;;;;;;5.95;69.29;99205.69;4765612;30;20080;-84
2022/04/21 07:37:36;;;;;;;0.50;0.50;;;;;;;5.96;69.85;99220.72;4767803;30;20068;-82
2022/04/21 07:40:05;;;;;;;0.60;0.60;;;;;;;5.99;70.38;99228.34;4767429;30;20154;-81
2022/04/21 07:42:32;;;;;;;0.50;0.50;;;;;;;5.99;70.98;99232.88;4781711;29;20051;-81
2022/04/21 07:45:01;;;;;;;0.60;0.60;;;;;;;5.98;71.44;99228.56;4767102;30;20540;-83
2022/04/21 07:47:29;;;;;;;0.50;0.50;;;;;;;5.96;71.98;99228.75;4766782;30;20054;-83
2022/04/21 07:49:56;;;;;;;0.60;0.60;;;;;;;5.95;72.00;99235.16;4767425;30;20531;-81
2022/04/21 07:55:23;;;;;;;0.60;0.60;;;;;;;5.91;72.94;99239.25;4766730;30;20056;-83
2022/04/21 07:57:55;;;;;;;0.60;0.60;;;;;;;5.85;73.37;99245.44;4767984;30;20102;-83
2022/04/21 08:00:23;;;;;;;0.60;0.60;;;;;;;5.80;73.80;99242.56;4767772;30;20062;-83
2022/04/21 08:02:54;;;;;;;0.60;0.60;;;;;;;5.75;74.44;99253.09;4766276;30;20137;-83
2022/04/21 08:05:33;;;;;;;0.60;0.60;;;;;;;5.66;74.98;99263.16;4738349;30;20056;-83
2022/04/21 08:08:03;;;;;;;0.60;0.60;;;;;;;5.62;75.66;99253.88;4767296;30;20059;-84
2022/04/21 08:10:30;;;;;;;0.60;0.60;;;;;;;5.60;76.00;99256.78;4780256;30;20103;-83
2022/04/21 08:13:00;;;;;;;0.60;0.60;;;;;;;5.57;76.17;99262.56;4762603;30;20083;-84
2022/04/21 08:15:29;;;;;;;0.60;0.60;;;;;;;5.56;76.51;99263.56;4769781;30;20177;-84
2022/04/21 08:18:02;;;;;;;0.50;0.50;;;;;;;5.55;76.50;99269.97;4782165;30;20060;-84
2022/04/21 08:20:31;;;;;;;0.60;0.60;;;;;;;5.49;77.02;99268.09;4775811;30;20063;-84
2022/04/21 08:22:58;;;;;;;0.60;0.60;;;;;;;5.40;77.25;99274.69;4795904;30;20051;-82
2022/04/21 08:34:23;;;;;;;0.60;0.60;;;;;;;5.21;79.26;99287.00;4773196;30;19929;-81
2022/04/21 08:36:58;;;;;;;0.60;0.60;;;;;;;5.25;79.26;99296.28;4772439;30;20151;-82
2022/04/21 08:39:25;;;;;;;0.60;0.60;;;;;;;5.21;79.63;99293.16;4770294;30;20202;-83
2022/04/21 08:42:00;;;;;;;0.50;0.50;;;;;;;5.21;79.79;99297.69;4770436;30;20056;-82
2022/04/21 08:44:29;;;;;;;0.50;0.50;;;;;;;5.20;80.01;99302.25;4770611;30;20094;-83
2022/04/21 08:46:59;;;;;;;0.50;0.50;;;;;;;5.16;80.23;99314.34;4770261;30;20063;-82
2022/04/21 08:49:31;;;;;;;0.60;0.60;;;;;;;5.13;80.46;99300.56;4769022;30;20161;-82
2022/04/21 08:52:00;;;;;;;0.50;0.50;;;;;;;5.14;80.41;99312.91;4783896;30;20056;-84
2022/04/21 08:54:28;;;;;;;0.50;0.50;;;;;;;5.16;80.41;99317.03;4770247;30;20052;-83
2022/04/21 08:56:57;;;;;;;0.50;0.50;;;;;;;5.22;80.46;99315.44;4783411;30;20055;-83
2022/04/21 08:59:24;;;;;;;0.55;0.55;;;;;;;5.25;80.60;99316.88;4770022;30;20059;-83
2022/04/21 09:01:51;;;;;;;0.60;0.60;;;;;;;5.30;80.61;99327.78;4772489;30;20051;-84
2022/04/21 09:04:18;;;;;;;0.50;0.50;;;;;;;5.35;80.71;99334.19;4771601;30;20056;-83
2022/04/21 09:06:45;;;;;;;0.60;0.60;;;;;;;5.38;80.40;99330.28;4770772;30;20066;-81
2022/04/21 09:09:19;;;;;;;0.60;0.60;;;;;;;5.39;80.04;99337.25;4784404;30;20079;-83
2022/04/21 09:11:50;;;;;;;0.60;0.60;;;;;;;5.49;80.61;99345.72;4782946;29;20059;-83
2022/04/21 09:14:17;;;;;;;0.55;0.55;;;;;;;5.56;80.22;99343.88;4770159;30;20109;-82
2022/04/21 09:16:45;;;;;;;0.60;0.60;;;;;;;5.59;79.56;99342.66;4771558;30;20060;-83
2022/04/21 09:19:13;;;;;;;0.50;0.50;;;;;;;5.70;79.82;99350.09;4769566;30;20056;-85
2022/04/21 09:21:41;;;;;;;0.60;0.60;;;;;;;5.74;79.75;99348.66;4783463;29;20146;-82
2022/04/21 09:24:25;;;;;;;0.57;0.57;;;;;;;5.84;80.33;99345.56;4767998;30;20052;-83
2022/04/21 09:26:56;;;;;;;0.70;0.70;;;;;;;5.77;80.07;99352.78;4768803;30;20060;-85
2022/04/21 09:29:31;;;;;;;0.60;0.60;;;;;;;5.77;79.71;99350.09;4769120;30;20048;-84
2022/04/21 09:31:59;;;;;;;0.60;0.60;;;;;;;5.82;79.47;99358.34;4765699;30;20055;-85
2022/04/21 09:34:37;;;;;;;0.60;0.60;;;;;;;5.77;79.33;99344.75;4770404;30;20082;-84
2022/04/21 09:37:07;;;;;;;0.50;0.50;;;;;;;5.68;79.21;99359.38;4770328;30;20060;-83
2022/04/21 09:39:41;;;;;;;0.60;0.60;;;;;;;5.73;79.40;99362.25;4770082;30;20105;-83
2022/04/21 09:42:08;;;;;;;0.60;0.60;;;;;;;5.64;79.11;99362.44;4769331;30;20547;-85
2022/04/21 09:47:30;;;;;;;0.63;0.63;;;;;;;5.52;80.12;99363.22;4751408;30;20067;-83
2022/04/21 09:50:12;;;;;;;0.60;0.60;;;;;;;5.46;80.42;99375.59;4751855;30;20063;-84
2022/04/21 09:52:49;;;;;;;0.50;0.50;;;;;;;5.42;80.55;99372.50;4763665;30;20052;-84
2022/04/21 09:55:27;;;;;;;0.60;0.60;;;;;;;5.43;80.70;99382.16;4768463;30;20175;-83
2022/04/21 09:58:08;;;;;;;0.60;0.60;;;;;;;5.47;80.19;99369.22;4768458;30;20063;-84
2022/04/21 10:00:37;;;;;;;0.60;0.60;;;;;;;5.41;79.92;99386.88;4752060;30;20092;-84
2022/04/21 10:03:05;;;;;;;0.60;0.60;;;;;;;5.46;80.18;99383.63;4436452;29;10000146;-84
2022/04/21 10:05:33;;;;;;;0.60;0.60;;;;;;;5.55;79.82;99397.66;4772839;30;20840;-84
2022/04/21 10:08:02;;;;;;;0.60;0.60;;;;;;;5.59;79.32;99386.31;4764902;30;20453;-83
2022/04/21 10:10:31;;;;;;;0.50;0.50;;;;;;;5.63;78.90;99395.59;4776218;30;20109;-83
2022/04/21 10:13:00;;;;;;;0.60;0.60;;;;;;;5.65;78.66;99401.59;4774236;30;20716;-84
2022/04/21 10:15:29;;;;;;;0.60;0.60;;;;;;;5.71;78.54;99399.94;4764385;30;20077;-83
2022/04/21 10:17:56;;;;;;;0.50;0.50;;;;;;;5.72;78.37;99408.81;4749286;30;20124;-83
2022/04/21 10:20:24;;;;;;;0.50;0.50;;;;;;;5.73;78.27;99407.78;4747948;30;20524;-84
2022/04/21 10:22:53;;;;;;;0.50;0.50;;;;;;;5.75;78.48;99413.78;4756975;30;20056;-83
2022/04/21 10:25:22;;;;;;;0.60;0.60;;;;;;;5.81;78.45;99418.31;4764330;30;20075;-82
2022/04/21 10:27:53;;;;;;;0.50;0.50;;;;;;;5.81;78.46;99423.66;4762099;30;20587;-83
2022/04/21 10:30:29;;;;;;;0.50;0.50;;;;;;;5.79;78.25;99423.03;4763512;30;20060;-83
2022/04/21 10:32:58;;;;;;;0.60;0.60;;;;;;;5.78;77.83;99427.56;4792265;30;20055;-86
2022/04/21 10:35:29;;;;;;;0.50;0.50;;;;;;;5.83;78.02;99438.50;4783331;29;20501;-83
2022/04/21 10:38:14;;;;;;;0.60;0.60;;;;;;;5.80;78.28;99438.09;4766284;30;21127;-84
2022/04/21 10:40:54;;;;;;;0.50;0.50;;;;;;;5.82;78.88;99449.41;4768462;30;20134;-84
2022/04/21 10:43:21;;;;;;;0.60;0.60;;;;;;;5.80;78.72;99451.50;4766399;30;20083;-83
2022/04/21 10:46:05;;;;;;;0.50;0.50;;;;;;;5.77;78.52;99449.19;4767107;30;20111;-84
2022/04/21 10:48:43;;;;;;;0.60;0.60;;;;;;;5.73;78.77;99446.09;4781296;30;20052;-84
2022/04/21 10:57:11;;;;;;;0.60;0.60;;;;;;;5.77;78.64;99441.16;4769084;30;20556;-83
2022/04/21 10:57:15;;;;;;;0.50;0.50;;;;;;;5.87;78.39;99463.00;4774527;30;20117;-83
2022/04/21 10:59:50;;;;;;;0.52;0.52;;;;;;;5.86;78.34;99472.09;4752109;30;20134;-83
2022/04/21 11:02:17;;;;;;;0.60;0.60;;;;;;;5.81;78.37;99477.22;4766497;30;20055;-82
2022/04/21 11:04:44;;;;;;;0.60;0.60;;;;;;;5.77;78.48;99479.50;4779663;29;20057;-83
2022/04/21 11:07:13;;;;;;;0.50;0.50;;;;;;;5.82;78.57;99477.03;4768217;30;20086;-83
2022/04/21 11:09:44;;;;;;;0.50;0.50;;;;;;;5.80;78.80;99476.41;4768679;30;20591;-81
2022/04/21 11:12:43;;;;;;;0.60;0.60;;;;;;;5.78;78.67;99488.34;4767021;30;20077;-82
2022/04/21 11:15:32;;;;;;;0.50;0.50;;;;;;;5.71;78.96;99482.97;4763470;30;20501;-83
2022/04/21 11:18:01;;;;;;;0.50;0.50;;;;;;;5.65;79.07;99489.13;4768476;30;20113;-83
2022/04/21 11:20:28;;;;;;;0.60;0.60;;;;;;;5.62;79.39;99484.16;4768215;30;20055;-84
2022/04/21 11:22:55;;;;;;;0.60;0.60;;;;;;;5.65;79.10;99499.84;4767845;30;20056;-84
2022/04/21 11:25:23;;;;;;;0.50;0.50;;;;;;;5.65;79.08;99489.13;4766951;30;20544;-84
2022/04/21 11:27:51;;;;;;;0.60;0.60;;;;;;;5.65;79.28;99498.00;4766953;30;20105;-81
2022/04/21 11:30:18;;;;;;;0.60;0.60;;;;;;;5.70;79.18;99475.13;4767817;30;20094;-83
2022/04/21 11:32:51;;;;;;;0.60;0.60;;;;;;;5.75;79.27;99492.25;4766551;30;20424;-83
2022/04/21 11:35:22;;;;;;;0.60;0.60;;;;;;;5.79;79.14;99498.84;4767089;30;20194;-82
2022/04/21 11:38:07;;;;;;;0.60;0.60;;;;;;;5.82;78.59;99489.59;4772941;30;20498;-83
2022/04/21 11:40:35;;;;;;;;;;;;;;;5.76;78.68;99487.72;4768375;30;20196;-82
2022/04/21 11:43:17;;;;;;;0.60;0.60;;;;;;;5.77;78.74;99500.06;4767883;30;19964;-83
2022/04/21 11:45:58;;;;;;;0.60;0.60;;;;;;;5.79;78.62;99501.53;4766957;30;20174;-82
2022/04/21 11:48:34;;;;;;;0.60;0.60;;;;;;;5.78;78.68;99502.56;4769744;30;20516;-81
2022/04/21 11:51:01;;;;;;;0.50;0.50;;;;;;;5.82;78.69;99497.63;4771523;30;20056;-83
2022/04/21 11:53:43;;;;;;;0.50;0.50;;;;;;;5.84;78.49;99500.94;4771387;30;20144;-82
2022/04/21 11:56:11;;;;;;;0.60;0.60;;;;;;;5.88;78.65;99502.19;4770551;30;20117;-82
2022/04/21 11:58:41;;;;;;;0.60;0.60;;;;;;;5.89;78.44;99497.66;4784075;30;20051;-82
2022/04/21 12:06:55;;;;;;;0.50;0.50;;;;;;;6.01;78.23;99507.59;4759162;30;20067;-82
2022/04/21 12:09:26;;;;;;;0.57;0.57;;;;;;;5.99;78.11;99520.38;4769320;30;20067;-81
2022/04/21 12:11:55;;;;;;;0.60;0.60;;;;;;;6.03;78.14;99518.94;4761980;30;20146;-80
2022/04/21 12:14:23;;;;;;;0.60;0.60;;;;;;;6.06;77.67;99510.50;4754814;30;20048;-81
2022/04/21 12:16:58;;;;;;;0.60;0.60;;;;;;;6.15;77.52;99516.47;4770020;30;20062;-81
2022/04/21 12:19:26;;;;;;;0.50;0.50;;;;;;;6.17;77.81;99516.28;4770809;30;20127;-82
2022/04/21 12:21:56;;;;;;;0.60;0.60;;;;;;;6.21;77.66;99513.00;4770889;30;20146;-83
2022/04/21 12:24:29;;;;;;;0.60;0.60;;;;;;;6.25;77.93;99519.63;4769072;30;20054;-82
2022/04/21 12:27:00;;;;;;;0.52;0.52;;;;;;;6.32;77.85;99519.63;4778683;30;20114;-82
2022/04/21 12:29:29;;;;;;;0.50;0.50;;;;;;;6.31;77.74;99523.34;4766968;30;20092;-83
2022/04/21 12:32:01;;;;;;;0.60;0.60;;;;;;;6.27;77.96;99522.09;4769198;30;20090;-82
2022/04/21 12:34:39;;;;;;;0.50;0.50;;;;;;;6.28;77.95;99521.91;4770217;30;20055;-82
2022/04/21 12:37:07;;;;;;;0.50;0.50;;;;;;;6.29;78.08;99530.75;4770607;30;20056;-82
2022/04/21 12:39:34;;;;;;;0.50;0.50;;;;;;;6.29;77.81;99531.56;4787236;30;20083;-82
2022/04/21 12:42:21;;;;;;;0.50;0.50;;;;;;;6.29;78.29;99530.75;4781871;30;20076;-82